createdAt,value
2019-02-15T00:00:58.800Z,1.70
2019-02-15T00:03:28.311Z,1.70
2019-02-15T00:05:57.974Z,1.80
2019-02-15T00:08:27.543Z,1.70
2019-02-15T00:10:57.328Z,1.70
2019-02-15T00:13:27.038Z,1.70
2019-02-15T00:15:56.780Z,1.70
2019-02-15T00:18:33.956Z,1.70
2019-02-15T00:21:07.981Z,1.60
2019-02-15T00:23:38.380Z,1.60
2019-02-15T00:26:08.218Z,1.60
2019-02-15T00:28:37.833Z,1.60
2019-02-15T00:31:09.030Z,1.50
2019-02-15T00:33:38.696Z,1.50
2019-02-15T00:36:08.213Z,1.50
2019-02-15T00:38:37.745Z,1.50
2019-02-15T00:41:07.609Z,1.50
2019-02-15T00:43:37.239Z,1.50
2019-02-15T00:46:25.529Z,1.50
2019-02-15T00:48:55.604Z,1.40
2019-02-15T00:51:32.608Z,1.40
2019-02-15T00:54:21.950Z,1.40
2019-02-15T00:57:09.245Z,1.40
2019-02-15T00:59:47.338Z,1.40
2019-02-15T01:02:22.488Z,1.30
2019-02-15T01:05:02.539Z,1.30
2019-02-15T01:07:50.074Z,1.30
2019-02-15T01:10:32.855Z,1.20
2019-02-15T01:13:04.069Z,1.20
2019-02-15T01:15:33.665Z,1.20
2019-02-15T01:18:03.443Z,1.20
2019-02-15T01:20:32.928Z,1.20
2019-02-15T01:23:02.519Z,1.20
2019-02-15T01:25:33.914Z,1.20
2019-02-15T01:28:05.195Z,1.10
2019-02-15T01:30:34.506Z,1.10
2019-02-15T01:33:08.401Z,1.10
2019-02-15T01:35:39.743Z,1.10
2019-02-15T01:38:16.607Z,1.20
2019-02-15T01:40:53.757Z,1.20
2019-02-15T01:43:41.183Z,1.20
2019-02-15T01:46:18.577Z,1.20
2019-02-15T01:48:48.109Z,1.20
2019-02-15T01:51:17.890Z,1.10
2019-02-15T01:53:47.546Z,1.10
2019-02-15T01:56:17.318Z,1.10
2019-02-15T01:58:46.879Z,1.00
2019-02-15T02:01:18.175Z,0.90
2019-02-15T02:03:47.812Z,0.90
2019-02-15T02:06:17.586Z,0.90
2019-02-15T02:08:47.369Z,0.90
2019-02-15T02:11:16.968Z,0.90
2019-02-15T02:13:49.621Z,0.80
2019-02-15T02:16:18.234Z,0.80
2019-02-15T02:18:47.802Z,0.80
2019-02-15T02:21:17.670Z,0.90
2019-02-15T02:23:47.371Z,0.80
2019-02-15T02:26:17.115Z,0.80
2019-02-15T02:28:47.010Z,0.80
2019-02-15T02:31:16.745Z,0.80
2019-02-15T02:33:46.345Z,0.80
2019-02-15T02:36:15.935Z,0.80
2019-02-15T02:38:45.945Z,0.80
2019-02-15T02:41:15.518Z,0.70
2019-02-15T02:43:45.242Z,0.80
2019-02-15T02:46:14.827Z,0.80
2019-02-15T02:48:44.564Z,0.80
2019-02-15T02:51:14.188Z,0.80
2019-02-15T02:53:43.993Z,0.80
2019-02-15T02:56:13.589Z,0.80
2019-02-15T02:58:43.487Z,0.80
2019-02-15T03:01:13.078Z,0.80
2019-02-15T03:03:42.703Z,0.70
2019-02-15T03:06:12.348Z,0.80
2019-02-15T03:08:41.873Z,0.80
2019-02-15T03:11:11.538Z,0.70
2019-02-15T03:13:41.150Z,0.80
2019-02-15T03:16:10.624Z,1.00
2019-02-15T03:18:40.341Z,0.80
2019-02-15T03:21:09.971Z,0.80
2019-02-15T03:23:39.882Z,0.60
2019-02-15T03:26:09.424Z,0.60
2019-02-15T03:28:39.130Z,0.60
2019-02-15T03:31:08.638Z,0.50
2019-02-15T03:33:38.154Z,0.40
2019-02-15T03:36:09.733Z,0.40
2019-02-15T03:38:58.951Z,0.40
2019-02-15T03:41:30.456Z,0.40
2019-02-15T03:44:00.051Z,0.60
2019-02-15T03:46:29.859Z,0.50
2019-02-15T03:48:59.457Z,0.50
2019-02-15T03:51:29.304Z,0.50
2019-02-15T03:53:58.897Z,0.60
2019-02-15T03:56:28.708Z,0.50
2019-02-15T03:58:58.279Z,0.50
2019-02-15T04:01:27.924Z,0.40
2019-02-15T04:03:57.713Z,0.40
2019-02-15T04:06:27.479Z,0.40
2019-02-15T04:08:57.129Z,0.40
2019-02-15T04:11:26.913Z,0.50
2019-02-15T04:13:56.571Z,0.50
2019-02-15T04:16:26.159Z,0.50
2019-02-15T04:18:55.658Z,0.50
2019-02-15T04:21:25.243Z,0.40
2019-02-15T04:23:55.111Z,0.40
2019-02-15T04:26:24.698Z,0.40
2019-02-15T04:28:54.453Z,0.40
2019-02-15T04:31:23.979Z,0.30
2019-02-15T04:33:53.557Z,0.50
2019-02-15T04:36:23.218Z,0.60
2019-02-15T04:38:52.773Z,0.70
2019-02-15T04:41:22.467Z,0.60
2019-02-15T04:43:52.059Z,0.60
2019-02-15T04:46:21.852Z,0.60
2019-02-15T04:48:51.480Z,0.50
2019-02-15T04:51:21.102Z,0.50
2019-02-15T04:53:50.670Z,0.40
2019-02-15T04:56:20.401Z,0.30
2019-02-15T04:58:50.015Z,0.30
2019-02-15T05:01:19.607Z,0.20
2019-02-15T05:03:49.373Z,0.20
2019-02-15T05:06:18.947Z,0.20
2019-02-15T05:08:48.762Z,0.30
2019-02-15T05:11:18.401Z,0.30
2019-02-15T05:13:48.492Z,0.40
2019-02-15T05:16:18.049Z,0.40
2019-02-15T05:18:47.655Z,0.30
2019-02-15T05:21:17.268Z,0.30
2019-02-15T05:23:47.072Z,0.30
2019-02-15T05:26:16.677Z,0.30
2019-02-15T05:28:46.391Z,0.30
2019-02-15T05:31:15.929Z,0.30
2019-02-15T05:33:45.442Z,0.30
2019-02-15T05:36:15.083Z,0.30
2019-02-15T05:38:44.669Z,0.40
2019-02-15T05:41:14.241Z,0.40
2019-02-15T05:43:43.967Z,0.40
2019-02-15T05:46:13.591Z,0.30
2019-02-15T05:48:43.211Z,0.20
2019-02-15T05:51:13.166Z,0.30
2019-02-15T05:53:42.747Z,0.20
2019-02-15T05:56:12.300Z,0.20
2019-02-15T05:58:42.006Z,0.20
2019-02-15T06:01:12.321Z,0.20
2019-02-15T06:03:42.085Z,0.20
2019-02-15T06:06:11.822Z,0.20
2019-02-15T06:08:41.595Z,0.20
2019-02-15T06:11:11.080Z,0.10
2019-02-15T06:13:40.772Z,0.20
2019-02-15T06:16:10.417Z,0.20
2019-02-15T06:18:40.032Z,0.10
2019-02-15T06:21:09.745Z,0.10
2019-02-15T06:23:39.762Z,0.10
2019-02-15T06:26:09.337Z,0.20
2019-02-15T06:28:38.938Z,0.10
2019-02-15T06:31:08.731Z,0.10
2019-02-15T06:33:38.290Z,0.20
2019-02-15T06:36:08.263Z,0.30
2019-02-15T06:38:37.778Z,0.30
2019-02-15T06:41:07.795Z,0.40
2019-02-15T06:43:37.292Z,0.50
2019-02-15T06:46:07.008Z,0.40
2019-02-15T06:48:36.602Z,0.40
2019-02-15T06:51:06.200Z,0.40
2019-02-15T06:53:35.732Z,0.40
2019-02-15T06:56:05.244Z,0.40
2019-02-15T06:58:45.291Z,0.50
2019-02-15T07:01:10.185Z,0.40
2019-02-15T07:03:50.596Z,0.40
2019-02-15T07:06:20.372Z,0.40
2019-02-15T07:08:51.835Z,0.50
2019-02-15T07:11:21.595Z,0.60
2019-02-15T07:13:51.267Z,0.60
2019-02-15T07:16:21.133Z,0.70
2019-02-15T07:18:50.700Z,0.80
2019-02-15T07:21:20.552Z,0.80
2019-02-15T07:23:50.194Z,0.80
2019-02-15T07:26:19.970Z,0.90
2019-02-15T07:28:49.602Z,1.00
2019-02-15T07:31:19.285Z,1.00
2019-02-15T07:33:48.967Z,1.00
2019-02-15T07:36:18.600Z,1.10
2019-02-15T07:38:48.375Z,1.10
2019-02-15T07:41:18.086Z,1.20
2019-02-15T07:43:47.842Z,1.30
2019-02-15T07:46:17.494Z,1.30
2019-02-15T07:48:47.166Z,1.40
2019-02-15T07:51:16.896Z,1.50
2019-02-15T07:53:46.697Z,1.60
2019-02-15T07:56:16.327Z,1.60
2019-02-15T07:58:46.210Z,1.70
2019-02-15T08:01:15.927Z,1.80
2019-02-15T08:03:45.505Z,1.80
2019-02-15T08:06:15.175Z,1.90
2019-02-15T08:08:44.760Z,2.00
2019-02-15T08:11:14.529Z,2.00
2019-02-15T08:13:44.220Z,2.10
2019-02-15T08:16:13.788Z,2.10
2019-02-15T08:18:43.415Z,2.20
2019-02-15T08:21:13.352Z,2.20
2019-02-15T08:23:43.007Z,2.30
2019-02-15T08:26:12.825Z,2.40
2019-02-15T08:28:42.484Z,2.50
2019-02-15T08:31:12.379Z,2.60
2019-02-15T08:33:42.066Z,2.70
2019-02-15T08:36:11.660Z,2.80
2019-02-15T08:38:41.385Z,2.90
2019-02-15T08:41:11.127Z,2.90
2019-02-15T08:43:40.848Z,3.00
2019-02-15T08:46:10.619Z,3.10
2019-02-15T08:48:45.947Z,3.20
2019-02-15T08:51:11.420Z,3.20
2019-02-15T08:53:41.026Z,3.30
2019-02-15T08:56:10.735Z,3.30
2019-02-15T08:58:40.486Z,3.50
2019-02-15T09:01:10.166Z,3.60
2019-02-15T09:03:40.013Z,3.70
2019-02-15T09:06:09.655Z,3.80
2019-02-15T09:08:39.280Z,3.80
2019-02-15T09:11:08.930Z,3.90
2019-02-15T09:13:39.056Z,4.00
2019-02-15T09:16:10.624Z,4.10
2019-02-15T09:18:41.855Z,4.20
2019-02-15T09:21:11.433Z,4.30
2019-02-15T09:23:40.942Z,4.40
2019-02-15T09:26:18.037Z,4.50
2019-02-15T09:28:43.914Z,4.60
2019-02-15T09:31:13.701Z,4.70
2019-02-15T09:33:43.690Z,4.80
2019-02-15T09:36:13.524Z,5.00
2019-02-15T09:38:43.049Z,5.10
2019-02-15T09:41:12.943Z,5.20
2019-02-15T09:43:42.576Z,5.30
2019-02-15T09:46:19.600Z,5.40
2019-02-15T09:48:43.704Z,5.60
2019-02-15T09:51:13.256Z,5.60
2019-02-15T09:53:43.535Z,5.70
2019-02-15T09:56:13.033Z,5.80
2019-02-15T09:58:42.750Z,5.90
2019-02-15T10:01:12.437Z,6.00
2019-02-15T10:03:42.161Z,6.00
2019-02-15T10:06:11.929Z,6.10
2019-02-15T10:08:41.596Z,6.30
2019-02-15T10:11:11.233Z,6.40
2019-02-15T10:13:42.485Z,6.50
2019-02-15T10:16:12.120Z,6.60
2019-02-15T10:18:42.009Z,6.70
2019-02-15T10:21:11.585Z,6.80
2019-02-15T10:23:41.496Z,7.20
2019-02-15T10:26:11.080Z,7.30
2019-02-15T10:28:40.776Z,7.30
2019-02-15T10:31:10.398Z,7.40
2019-02-15T10:33:40.224Z,7.50
2019-02-15T10:36:09.768Z,7.60
2019-02-15T10:38:39.399Z,7.70
2019-02-15T10:41:09.361Z,7.70
2019-02-15T10:43:38.974Z,7.90
2019-02-15T10:46:08.805Z,8.10
2019-02-15T10:48:38.533Z,8.20
2019-02-15T10:51:08.201Z,8.30
2019-02-15T10:53:37.900Z,8.40
2019-02-15T10:56:07.584Z,8.40
2019-02-15T10:58:37.364Z,8.60
2019-02-15T11:01:07.023Z,8.70
2019-02-15T11:03:36.773Z,8.90
2019-02-15T11:06:06.484Z,8.90
2019-02-15T11:08:36.229Z,9.00
2019-02-15T11:11:05.968Z,9.10
2019-02-15T11:13:35.709Z,9.20
2019-02-15T11:16:05.500Z,9.30
2019-02-15T11:18:35.419Z,9.40
2019-02-15T11:21:05.342Z,9.40
2019-02-15T11:23:34.907Z,9.50
2019-02-15T11:26:04.728Z,9.70
2019-02-15T11:28:34.388Z,9.80
2019-02-15T11:31:04.364Z,9.90
2019-02-15T11:33:33.943Z,10.10
2019-02-15T11:36:03.713Z,10.20
2019-02-15T11:38:33.468Z,10.20
2019-02-15T11:41:10.912Z,10.30
2019-02-15T11:43:35.367Z,10.40
2019-02-15T11:46:05.412Z,10.50
2019-02-15T11:48:35.321Z,10.50
2019-02-15T11:51:05.101Z,10.60
2019-02-15T11:53:34.771Z,10.60
2019-02-15T11:56:04.689Z,10.80
2019-02-15T11:58:34.294Z,10.80
2019-02-15T12:01:05.491Z,10.90
2019-02-15T12:03:34.985Z,11.00
2019-02-15T12:06:05.250Z,11.00
2019-02-15T12:08:35.087Z,11.10
2019-02-15T12:11:04.915Z,11.10
2019-02-15T12:13:34.556Z,11.20
2019-02-15T12:16:04.080Z,11.40
2019-02-15T12:18:33.828Z,11.50
2019-02-15T12:21:03.442Z,11.50
2019-02-15T12:23:33.374Z,11.60
2019-02-15T12:26:03.124Z,11.60
2019-02-15T12:28:32.779Z,11.70
2019-02-15T12:31:02.378Z,11.80
2019-02-15T12:33:32.219Z,11.90
2019-02-15T12:36:01.765Z,12.00
2019-02-15T12:38:31.493Z,12.10
2019-02-15T12:41:01.032Z,12.20
2019-02-15T12:43:30.880Z,12.20
2019-02-15T12:46:00.550Z,12.20
2019-02-15T12:48:30.416Z,12.30
2019-02-15T12:51:00.002Z,12.30
2019-02-15T12:53:29.743Z,12.40
2019-02-15T12:55:59.578Z,12.50
2019-02-15T12:58:29.350Z,12.40
2019-02-15T13:01:02.405Z,12.40
2019-02-15T13:03:31.937Z,12.60
2019-02-15T13:06:01.604Z,12.70
2019-02-15T13:08:31.383Z,12.60
2019-02-15T13:11:01.144Z,12.70
2019-02-15T13:13:30.887Z,12.80
2019-02-15T13:16:00.987Z,12.90
2019-02-15T13:18:30.450Z,12.90
2019-02-15T13:21:00.130Z,12.90
2019-02-15T13:23:29.759Z,12.90
2019-02-15T13:26:08.206Z,13.00
2019-02-15T13:28:30.908Z,13.20
2019-02-15T13:31:00.759Z,13.20
2019-02-15T13:33:30.456Z,13.30
2019-02-15T13:36:00.201Z,13.40
2019-02-15T13:38:29.820Z,13.30
2019-02-15T13:40:59.538Z,13.40
2019-02-15T13:43:29.187Z,13.30
2019-02-15T13:45:59.041Z,13.40
2019-02-15T13:48:28.743Z,12.40
2019-02-15T13:50:58.539Z,13.50
2019-02-15T13:53:28.280Z,13.60
2019-02-15T13:55:57.865Z,13.60
2019-02-15T13:58:27.509Z,13.70
2019-02-15T14:00:57.249Z,13.70
2019-02-15T14:03:26.900Z,13.60
2019-02-15T14:06:16.180Z,13.70
2019-02-15T14:08:45.908Z,13.70
2019-02-15T14:11:15.699Z,13.60
2019-02-15T14:13:45.259Z,13.70
2019-02-15T14:16:15.289Z,13.70
2019-02-15T14:18:44.986Z,13.80
2019-02-15T14:21:14.617Z,13.70
2019-02-15T14:23:44.180Z,13.60
2019-02-15T14:26:13.944Z,13.60
2019-02-15T14:28:43.510Z,13.80
2019-02-15T14:31:13.345Z,13.90
2019-02-15T14:33:42.902Z,13.90
2019-02-15T14:36:12.612Z,14.00
2019-02-15T14:38:42.403Z,13.80
2019-02-15T14:41:12.127Z,13.90
2019-02-15T14:43:41.772Z,13.90
2019-02-15T14:46:17.764Z,13.80
2019-02-15T14:48:47.555Z,13.80
2019-02-15T14:51:17.383Z,13.70
2019-02-15T14:53:47.051Z,13.80
2019-02-15T14:56:19.837Z,13.80
2019-02-15T14:58:49.443Z,13.90
2019-02-15T15:01:19.543Z,13.90
2019-02-15T15:03:51.380Z,13.60
2019-02-15T15:06:21.283Z,13.50
2019-02-15T15:08:50.831Z,13.60
2019-02-15T15:11:20.699Z,13.70
2019-02-15T15:13:50.488Z,13.80
2019-02-15T15:16:20.327Z,13.70
2019-02-15T15:18:49.974Z,13.80
2019-02-15T15:21:19.944Z,13.70
2019-02-15T15:23:49.625Z,13.70
2019-02-15T15:26:19.348Z,13.60
2019-02-15T15:28:49.181Z,13.60
2019-02-15T15:31:18.909Z,13.60
2019-02-15T15:33:49.442Z,13.60
2019-02-15T15:36:19.049Z,13.60
2019-02-15T15:38:48.578Z,13.60
2019-02-15T15:41:18.212Z,13.40
2019-02-15T15:43:48.247Z,13.30
2019-02-15T15:46:18.203Z,13.30
2019-02-15T15:48:47.766Z,13.10
2019-02-15T15:51:17.479Z,13.00
2019-02-15T15:53:47.236Z,13.00
2019-02-15T15:56:17.327Z,12.90
2019-02-15T15:58:46.787Z,13.00
2019-02-15T16:01:16.486Z,12.90
2019-02-15T16:03:46.049Z,12.90
2019-02-15T16:06:24.013Z,12.90
2019-02-15T16:08:47.027Z,12.80
2019-02-15T16:11:16.629Z,12.60
2019-02-15T16:13:46.143Z,12.50
2019-02-15T16:16:15.746Z,12.50
2019-02-15T16:18:45.316Z,12.40
2019-02-15T16:21:15.126Z,12.30
2019-02-15T16:23:44.767Z,12.10
2019-02-15T16:26:14.562Z,11.80
2019-02-15T16:28:44.122Z,11.30
2019-02-15T16:31:13.988Z,11.00
2019-02-15T16:33:43.501Z,10.70
2019-02-15T16:36:13.322Z,10.40
2019-02-15T16:38:42.942Z,10.20
2019-02-15T16:41:12.572Z,9.90
2019-02-15T16:43:42.146Z,9.70
2019-02-15T16:46:11.712Z,9.60
2019-02-15T16:48:42.291Z,9.50
2019-02-15T16:51:12.294Z,9.30
2019-02-15T16:53:42.140Z,9.20
2019-02-15T16:56:11.801Z,9.00
2019-02-15T16:58:41.560Z,8.80
2019-02-15T17:01:11.511Z,8.80
2019-02-15T17:03:41.088Z,8.60
2019-02-15T17:06:10.947Z,8.60
2019-02-15T17:08:40.524Z,8.50
2019-02-15T17:11:10.089Z,8.70
2019-02-15T17:13:39.913Z,8.60
2019-02-15T17:16:09.703Z,8.60
2019-02-15T17:18:39.350Z,8.40
2019-02-15T17:21:09.088Z,8.40
2019-02-15T17:23:38.678Z,8.30
2019-02-15T17:26:08.517Z,8.30
2019-02-15T17:28:38.172Z,8.30
2019-02-15T17:31:07.917Z,8.20
2019-02-15T17:33:37.592Z,8.20
2019-02-15T17:36:08.797Z,8.10
2019-02-15T17:38:38.623Z,8.00
2019-02-15T17:41:08.354Z,8.30
2019-02-15T17:43:38.368Z,8.00
2019-02-15T17:46:08.154Z,8.00
2019-02-15T17:48:37.862Z,7.90
2019-02-15T17:51:07.587Z,7.50
2019-02-15T17:53:37.444Z,7.90
2019-02-15T17:56:07.191Z,8.00
2019-02-15T17:58:37.041Z,9.40
2019-02-15T18:01:06.941Z,9.10
2019-02-15T18:03:36.568Z,8.70
2019-02-15T18:06:06.182Z,8.70
2019-02-15T18:08:36.125Z,8.70
2019-02-15T18:11:05.782Z,8.70
2019-02-15T18:13:36.026Z,9.00
2019-02-15T18:16:05.843Z,9.40
2019-02-15T18:18:36.066Z,10.00
2019-02-15T18:21:05.723Z,9.70
2019-02-15T18:23:35.586Z,9.80
2019-02-15T18:26:05.503Z,10.00
2019-02-15T18:28:35.203Z,9.70
2019-02-15T18:31:04.843Z,9.90
2019-02-15T18:33:34.652Z,10.40
2019-02-15T18:36:04.422Z,10.30
2019-02-15T18:38:34.947Z,10.10
2019-02-15T18:41:13.341Z,10.20
2019-02-15T18:43:36.811Z,10.20
2019-02-15T18:46:06.482Z,10.40
2019-02-15T18:48:36.210Z,10.10
2019-02-15T18:51:05.893Z,10.20
2019-02-15T18:53:35.735Z,10.10
2019-02-15T18:56:05.642Z,10.00
2019-02-15T18:58:35.636Z,9.90
2019-02-15T19:01:05.351Z,10.10
2019-02-15T19:03:35.095Z,10.20
2019-02-15T19:06:04.899Z,10.00
2019-02-15T19:08:34.799Z,9.90
2019-02-15T19:11:04.588Z,10.20
2019-02-15T19:13:34.322Z,10.50
2019-02-15T19:16:04.748Z,10.60
2019-02-15T19:18:34.391Z,10.70
2019-02-15T19:21:04.344Z,10.60
2019-02-15T19:23:37.444Z,10.80
2019-02-15T19:26:07.087Z,10.60
2019-02-15T19:28:36.905Z,10.80
2019-02-15T19:31:06.667Z,10.60
2019-02-15T19:33:36.584Z,10.60
2019-02-15T19:36:06.480Z,10.60
2019-02-15T19:38:36.351Z,10.40
2019-02-15T19:41:06.703Z,10.60
2019-02-15T19:43:36.397Z,10.50
2019-02-15T19:46:06.616Z,10.30
2019-02-15T19:48:36.292Z,10.70
2019-02-15T19:51:06.411Z,10.70
2019-02-15T19:53:36.161Z,10.30
2019-02-15T19:56:05.994Z,10.20
2019-02-15T19:58:35.592Z,9.90
2019-02-15T20:01:05.440Z,9.80
2019-02-15T20:03:35.081Z,9.60
2019-02-15T20:06:04.880Z,9.90
2019-02-15T20:08:34.646Z,10.00
2019-02-15T20:11:04.525Z,9.60
2019-02-15T20:13:34.269Z,9.40
2019-02-15T20:16:03.966Z,9.30
2019-02-15T20:18:33.597Z,9.30
2019-02-15T20:21:03.870Z,9.30
2019-02-15T20:23:33.379Z,9.10
2019-02-15T20:26:03.242Z,9.00
2019-02-15T20:28:32.904Z,8.90
2019-02-15T20:31:02.546Z,8.80
2019-02-15T20:33:32.327Z,8.90
2019-02-15T20:36:02.074Z,9.00
2019-02-15T20:38:31.898Z,8.80
2019-02-15T20:41:01.483Z,8.80
2019-02-15T20:43:31.309Z,8.90
2019-02-15T20:46:00.994Z,9.00
2019-02-15T20:48:30.606Z,8.80
2019-02-15T20:51:00.356Z,8.80
2019-02-15T20:53:30.074Z,8.70
2019-02-15T20:55:59.931Z,8.50
2019-02-15T20:58:29.581Z,8.50
2019-02-15T21:00:59.349Z,8.20
2019-02-15T21:03:28.870Z,8.00
2019-02-15T21:05:58.575Z,7.80
2019-02-15T21:08:28.284Z,7.90
2019-02-15T21:10:58.045Z,7.70
2019-02-15T21:13:27.580Z,7.50
2019-02-15T21:15:57.282Z,7.40
2019-02-15T21:18:26.940Z,7.20
2019-02-15T21:20:56.593Z,7.20
2019-02-15T21:23:26.315Z,7.00
2019-02-15T21:25:55.896Z,6.90
2019-02-15T21:28:25.828Z,6.80
2019-02-15T21:30:55.421Z,6.80
2019-02-15T21:33:25.247Z,6.70
2019-02-15T21:35:55.450Z,6.60
2019-02-15T21:38:25.262Z,6.60
2019-02-15T21:40:54.898Z,6.50
2019-02-15T21:43:24.664Z,6.40
2019-02-15T21:45:54.268Z,6.40
2019-02-15T21:48:23.768Z,6.40
2019-02-15T21:50:53.499Z,6.50
2019-02-15T21:53:23.124Z,6.30
2019-02-15T21:55:52.866Z,6.30
2019-02-15T21:58:22.407Z,6.30
2019-02-15T22:00:52.319Z,6.10
2019-02-15T22:03:21.979Z,6.10
2019-02-15T22:05:51.722Z,6.10
2019-02-15T22:08:21.354Z,6.10
2019-02-15T22:10:51.051Z,6.20
2019-02-15T22:13:20.661Z,6.10
2019-02-15T22:15:50.333Z,6.00
2019-02-15T22:18:19.902Z,6.10
2019-02-15T22:20:49.829Z,6.10
2019-02-15T22:23:19.450Z,6.20
2019-02-15T22:25:49.364Z,6.10
2019-02-15T22:28:19.018Z,6.10
2019-02-15T22:30:48.971Z,6.10
2019-02-15T22:33:18.791Z,6.20
2019-02-15T22:35:48.444Z,6.10
2019-02-15T22:38:18.254Z,6.10
2019-02-15T22:40:48.449Z,6.30
2019-02-15T22:43:21.566Z,6.30
2019-02-15T22:45:51.299Z,6.30
2019-02-15T22:48:21.013Z,6.50
2019-02-15T22:50:51.024Z,6.60
2019-02-15T22:53:20.756Z,6.60
2019-02-15T22:55:50.663Z,6.50
2019-02-15T22:58:20.186Z,6.50
2019-02-15T23:01:09.898Z,6.50
2019-02-15T23:03:39.918Z,6.50
2019-02-15T23:06:09.964Z,6.60
2019-02-15T23:08:39.621Z,6.60
2019-02-15T23:11:09.347Z,6.50
2019-02-15T23:13:39.164Z,6.50
2019-02-15T23:16:08.765Z,6.60
2019-02-15T23:18:38.364Z,6.50
2019-02-15T23:21:08.279Z,6.60
2019-02-15T23:23:37.915Z,6.60
2019-02-15T23:26:07.753Z,6.50
2019-02-15T23:28:37.865Z,6.60
2019-02-15T23:31:07.408Z,6.70
2019-02-15T23:33:37.189Z,6.90
2019-02-15T23:36:06.825Z,6.90
2019-02-15T23:38:36.619Z,6.90
2019-02-15T23:41:06.380Z,6.90
2019-02-15T23:43:36.093Z,6.80
2019-02-15T23:46:05.748Z,6.70
2019-02-15T23:48:35.530Z,6.70
2019-02-15T23:51:05.319Z,6.70
2019-02-15T23:53:34.989Z,6.70
2019-02-15T23:56:04.770Z,6.50
2019-02-15T23:58:34.310Z,6.40
